Meteo Giornale » Osservazioni meteo Stati Uniti (USA) » Westhampton Beach The Gabreski
ore: 02:35 - Osservazioni Meteo Westhampton Beach The Gabreski
Lat. 40° 51' N Lon. 72° 37' W Alt. 20 metri s.l.m.
21 °C
Pioggia
Temp. 24 Ore
19 °C
24 °C
Nord
5.5 Km/h
Dew point 20 °C
Umidità 94 %
Visibilità 8 Km
Il sole sorge alle ore 06:17
Il sole tramonta alle ore 19:23
| Data e Ora | Cielo e Fenomeni | T °C | DP °C | Um. % | Pres. hPa | Vis. km | Vento km/h | |
|---|---|---|---|---|---|---|---|---|
| Oggi h: 02:35 | Pioggia | 21 | 20 | 94 | 1018 | 8 | N 5.5 | |
| Oggi h: 01:53 | Coperto | 21 | 20 | 94 | 1018 | 10 | N 0 | |
| Oggi h: 00:53 | Pioggia | 21 | 20 | 94 | 1018 | 10 | N 0 | |
| Ieri h: 23:53 | Coperto | 21 | 19 | 88 | 1019 | 10 | N 0 | |
| Ieri h: 22:53 | Coperto | 21 | 18 | 82 | 1019 | 10 | N 5.5 | |
| Ieri h: 21:53 | Coperto | 21 | 18 | 82 | 1019 | 10 | N 0 | |
| Ieri h: 20:53 | Coperto | 21 | 18 | 82 | 1019 | 10 | N 0 | |
| Ieri h: 19:53 | Coperto | 21 | 18 | 82 | 1019 | 10 | N 5.5 | |
| Ieri h: 18:53 | Coperto | 22 | 18 | 78 | 1019 | 10 | SE 9.3 | |
| Ieri h: 17:53 | Sereno | 22 | 17 | 73 | 1019 | 10 | SE 9.3 | |
| Ieri h: 16:53 | Sereno | 22 | 17 | 73 | 1020 | 10 | SE 11.1 | |
| Ieri h: 15:53 | Sereno | 23 | 17 | 68 | 1020 | 10 | E/SE 11.1 | |
| Ieri h: 14:53 | Sereno | 23 | 17 | 68 | 1020 | 10 | E/SE 13 | |
| Ieri h: 13:53 | Sereno | 23 | 16 | 64 | 1020 | 10 | E 14.8 | |
| Ieri h: 12:53 | Sereno | 23 | 18 | 73 | 1021 | 10 | SE 11.1 | |
| Ieri h: 11:53 | Sereno | 24 | 15 | 57 | 1021 | 10 | E/SE 16.7 | |
| Ieri h: 10:53 | Sereno | 24 | 17 | 64 | 1021 | 10 | N 9.3 | |
| Ieri h: 09:53 | Sereno | 23 | 16 | 64 | 1020 | 10 | NE 14.8 | |
| Ieri h: 08:53 | Sereno | 23 | 18 | 73 | 1020 | 10 | N/NE 14.8 | |
| Ieri h: 07:53 | Sereno | 21 | 18 | 82 | 1020 | 10 | N 0 | |
| Ieri h: 06:53 | Sereno | 19 | 18 | 93 | 1019 | 10 | N 0 | |
| Ieri h: 05:53 | Poco Nuvoloso | 19 | 17 | 88 | 1019 | 10 | N 11.1 | |
| Ieri h: 04:53 | Sereno | 19 | 17 | 88 | 1019 | 10 | N 11.1 | |
| Ieri h: 03:53 | Coperto | 21 | 18 | 82 | 1019 | 10 | N 11.1 | |
| Ieri h: 02:53 | Molto Nuvoloso | 21 | 20 | 94 | 1019 | 10 | N/NO 7.4 | |



